sensor_id;sensor_type;location;lat;lon;timestamp;pressure;altitude;pressure_sealevel;temperature;humidity
67015;BME280;1033;52.560;13.374;2023-10-08T00:01:55;101256.44;;;11.28;100.00
67015;BME280;1033;52.560;13.374;2023-10-08T00:04:31;101269.16;;;11.28;100.00
67015;BME280;1033;52.560;13.374;2023-10-08T00:07:08;101277.84;;;11.17;100.00
67015;BME280;1033;52.560;13.374;2023-10-08T00:09:40;101262.88;;;11.21;100.00
67015;BME280;1033;52.560;13.374;2023-10-08T00:12:12;101241.19;;;11.21;100.00
67015;BME280;1033;52.560;13.374;2023-10-08T00:14:44;101262.88;;;11.21;100.00
67015;BME280;1033;52.560;13.374;2023-10-08T00:17:18;101253.47;;;11.17;100.00
67015;BME280;1033;52.560;13.374;2023-10-08T00:19:51;101260.31;;;11.13;100.00
67015;BME280;1033;52.560;13.374;2023-10-08T00:22:23;101266.88;;;11.04;100.00
67015;BME280;1033;52.560;13.374;2023-10-08T00:24:54;101281.72;;;11.08;100.00
67015;BME280;1033;52.560;13.374;2023-10-08T00:27:28;101267.97;;;11.09;100.00
67015;BME280;1033;52.560;13.374;2023-10-08T00:30:08;101271.94;;;11.07;100.00
67015;BME280;1033;52.560;13.374;2023-10-08T00:32:47;101271.50;;;11.03;100.00
67015;BME280;1033;52.560;13.374;2023-10-08T00:35:23;101271.94;;;11.07;100.00
67015;BME280;1033;52.560;13.374;2023-10-08T00:37:56;101282.09;;;11.05;100.00
67015;BME280;1033;52.560;13.374;2023-10-08T00:40:37;101293.16;;;11.03;100.00
67015;BME280;1033;52.560;13.374;2023-10-08T00:43:09;101287.16;;;11.08;100.00
67015;BME280;1033;52.560;13.374;2023-10-08T00:45:40;101286.50;;;11.06;100.00
67015;BME280;1033;52.560;13.374;2023-10-08T00:48:13;101291.75;;;11.14;100.00
67015;BME280;1033;52.560;13.374;2023-10-08T00:50:47;101294.69;;;11.12;100.00
67015;BME280;1033;52.560;13.374;2023-10-08T00:53:20;101292.16;;;11.11;100.00
67015;BME280;1033;52.560;13.374;2023-10-08T00:55:53;101299.00;;;11.07;100.00
67015;BME280;1033;52.560;13.374;2023-10-08T00:58:33;101296.69;;;11.04;100.00
67015;BME280;1033;52.560;13.374;2023-10-08T01:01:04;101303.16;;;11.03;100.00
67015;BME280;1033;52.560;13.374;2023-10-08T01:03:39;101301.72;;;11.07;100.00
67015;BME280;1033;52.560;13.374;2023-10-08T01:06:15;101292.69;;;11.00;100.00
67015;BME280;1033;52.560;13.374;2023-10-08T01:08:47;101287.66;;;10.97;100.00
67015;BME280;1033;52.560;13.374;2023-10-08T01:11:22;101284.56;;;11.00;100.00
67015;BME280;1033;52.560;13.374;2023-10-08T01:14:02;101299.53;;;10.96;100.00
67015;BME280;1033;52.560;13.374;2023-10-08T01:16:35;101302.69;;;10.99;100.00
67015;BME280;1033;52.560;13.374;2023-10-08T01:19:08;101313.84;;;10.89;100.00
67015;BME280;1033;52.560;13.374;2023-10-08T01:21:44;101325.31;;;10.92;100.00
67015;BME280;1033;52.560;13.374;2023-10-08T01:24:16;101320.16;;;10.97;100.00
67015;BME280;1033;52.560;13.374;2023-10-08T01:26:53;101312.38;;;11.08;100.00
67015;BME280;1033;52.560;13.374;2023-10-08T01:29:23;101316.44;;;10.98;100.00
67015;BME280;1033;52.560;13.374;2023-10-08T01:31:56;101321.63;;;10.99;100.00
67015;BME280;1033;52.560;13.374;2023-10-08T01:34:27;101329.97;;;10.98;100.00
67015;BME280;1033;52.560;13.374;2023-10-08T01:36:59;101339.63;;;11.07;100.00
67015;BME280;1033;52.560;13.374;2023-10-08T01:39:36;101327.06;;;10.99;100.00
67015;BME280;1033;52.560;13.374;2023-10-08T01:42:08;101331.44;;;11.00;100.00
67015;BME280;1033;52.560;13.374;2023-10-08T01:44:46;101338.72;;;11.00;100.00
67015;BME280;1033;52.560;13.374;2023-10-08T01:47:19;101350.22;;;11.02;100.00
67015;BME280;1033;52.560;13.374;2023-10-08T01:49:54;101348.94;;;10.98;100.00
67015;BME280;1033;52.560;13.374;2023-10-08T01:52:33;101360.78;;;10.97;100.00
67015;BME280;1033;52.560;13.374;2023-10-08T01:55:05;101358.41;;;10.87;100.00
67015;BME280;1033;52.560;13.374;2023-10-08T01:57:39;101353.66;;;10.89;100.00
67015;BME280;1033;52.560;13.374;2023-10-08T02:00:12;101375.09;;;10.90;100.00
67015;BME280;1033;52.560;13.374;2023-10-08T02:02:42;101373.31;;;10.98;100.00
67015;BME280;1033;52.560;13.374;2023-10-08T02:05:12;101362.22;;;10.93;100.00
67015;BME280;1033;52.560;13.374;2023-10-08T02:07:44;101364.38;;;11.04;100.00
67015;BME280;1033;52.560;13.374;2023-10-08T02:10:16;101375.34;;;10.96;100.00
67015;BME280;1033;52.560;13.374;2023-10-08T02:12:47;101365.53;;;10.95;100.00
67015;BME280;1033;52.560;13.374;2023-10-08T02:15:19;101370.97;;;10.95;100.00
67015;BME280;1033;52.560;13.374;2023-10-08T02:17:49;101375.16;;;10.97;100.00
67015;BME280;1033;52.560;13.374;2023-10-08T02:20:19;101397.69;;;10.98;100.00
67015;BME280;1033;52.560;13.374;2023-10-08T02:22:50;101395.16;;;10.96;100.00
67015;BME280;1033;52.560;13.374;2023-10-08T02:25:22;101405.22;;;11.02;100.00
67015;BME280;1033;52.560;13.374;2023-10-08T02:27:53;101405.66;;;11.06;100.00
67015;BME280;1033;52.560;13.374;2023-10-08T02:30:24;101429.16;;;10.99;100.00
67015;BME280;1033;52.560;13.374;2023-10-08T02:32:56;101438.34;;;11.04;100.00
67015;BME280;1033;52.560;13.374;2023-10-08T02:35:27;101448.34;;;11.04;100.00
67015;BME280;1033;52.560;13.374;2023-10-08T02:37:58;101432.50;;;11.01;100.00
67015;BME280;1033;52.560;13.374;2023-10-08T02:40:33;101433.66;;;11.13;100.00
67015;BME280;1033;52.560;13.374;2023-10-08T02:43:04;101435.31;;;11.14;100.00
67015;BME280;1033;52.560;13.374;2023-10-08T02:45:37;101425.06;;;11.09;100.00
67015;BME280;1033;52.560;13.374;2023-10-08T02:48:08;101429.84;;;11.07;100.00
67015;BME280;1033;52.560;13.374;2023-10-08T02:50:41;101419.38;;;11.04;100.00
67015;BME280;1033;52.560;13.374;2023-10-08T02:53:14;101432.34;;;11.09;100.00
67015;BME280;1033;52.560;13.374;2023-10-08T02:55:56;101439.00;;;11.06;100.00
67015;BME280;1033;52.560;13.374;2023-10-08T02:58:27;101435.19;;;11.01;100.00
67015;BME280;1033;52.560;13.374;2023-10-08T03:00:59;101433.72;;;10.98;100.00
67015;BME280;1033;52.560;13.374;2023-10-08T03:03:31;101428.56;;;11.03;100.00
67015;BME280;1033;52.560;13.374;2023-10-08T03:06:02;101413.94;;;10.98;100.00
67015;BME280;1033;52.560;13.374;2023-10-08T03:08:33;101428.88;;;10.94;100.00
67015;BME280;1033;52.560;13.374;2023-10-08T03:11:09;101428.09;;;11.00;100.00
67015;BME280;1033;52.560;13.374;2023-10-08T03:13:46;101442.44;;;10.94;100.00
67015;BME280;1033;52.560;13.374;2023-10-08T03:16:21;101437.44;;;10.97;100.00
67015;BME280;1033;52.560;13.374;2023-10-08T03:18:58;101438.94;;;11.00;100.00
67015;BME280;1033;52.560;13.374;2023-10-08T03:21:29;101449.97;;;10.98;100.00
67015;BME280;1033;52.560;13.374;2023-10-08T03:24:25;101448.09;;;10.99;100.00
67015;BME280;1033;52.560;13.374;2023-10-08T03:27:09;101431.97;;;10.90;100.00
67015;BME280;1033;52.560;13.374;2023-10-08T03:29:45;101449.16;;;10.83;100.00
67015;BME280;1033;52.560;13.374;2023-10-08T03:32:16;101455.44;;;10.83;100.00
67015;BME280;1033;52.560;13.374;2023-10-08T03:34:48;101474.72;;;10.95;100.00
67015;BME280;1033;52.560;13.374;2023-10-08T03:37:20;101469.22;;;10.88;100.00
67015;BME280;1033;52.560;13.374;2023-10-08T03:39:57;101470.63;;;10.84;100.00
67015;BME280;1033;52.560;13.374;2023-10-08T03:42:37;101472.50;;;10.84;100.00
67015;BME280;1033;52.560;13.374;2023-10-08T03:45:09;101490.63;;;10.83;100.00
67015;BME280;1033;52.560;13.374;2023-10-08T03:47:45;101501.06;;;10.86;100.00
67015;BME280;1033;52.560;13.374;2023-10-08T03:50:26;101503.38;;;10.89;100.00
67015;BME280;1033;52.560;13.374;2023-10-08T03:53:01;101516.28;;;10.87;100.00
67015;BME280;1033;52.560;13.374;2023-10-08T03:55:33;101520.03;;;10.86;100.00
67015;BME280;1033;52.560;13.374;2023-10-08T03:58:05;101524.59;;;10.86;100.00
67015;BME280;1033;52.560;13.374;2023-10-08T04:00:39;101518.72;;;10.82;100.00
67015;BME280;1033;52.560;13.374;2023-10-08T04:03:14;101534.97;;;10.82;100.00
67015;BME280;1033;52.560;13.374;2023-10-08T04:05:56;101534.88;;;10.76;100.00
67015;BME280;1033;52.560;13.374;2023-10-08T04:08:44;101521.63;;;10.66;100.00
67015;BME280;1033;52.560;13.374;2023-10-08T04:11:27;101519.94;;;10.51;100.00
67015;BME280;1033;52.560;13.374;2023-10-08T04:14:04;101520.50;;;10.46;100.00
67015;BME280;1033;52.560;13.374;2023-10-08T04:16:35;101532.28;;;10.53;100.00
67015;BME280;1033;52.560;13.374;2023-10-08T04:19:07;101544.84;;;10.46;100.00
67015;BME280;1033;52.560;13.374;2023-10-08T04:21:38;101551.94;;;10.47;100.00
67015;BME280;1033;52.560;13.374;2023-10-08T04:24:12;101566.88;;;10.43;100.00
67015;BME280;1033;52.560;13.374;2023-10-08T04:26:43;101565.69;;;10.45;100.00
67015;BME280;1033;52.560;13.374;2023-10-08T04:29:15;101568.38;;;10.45;100.00
67015;BME280;1033;52.560;13.374;2023-10-08T04:31:52;101574.72;;;10.38;100.00
67015;BME280;1033;52.560;13.374;2023-10-08T04:34:36;101592.34;;;10.34;100.00
67015;BME280;1033;52.560;13.374;2023-10-08T04:37:06;101606.16;;;10.39;100.00
67015;BME280;1033;52.560;13.374;2023-10-08T04:39:41;101603.44;;;10.39;100.00
67015;BME280;1033;52.560;13.374;2023-10-08T04:42:18;101594.56;;;10.30;100.00
67015;BME280;1033;52.560;13.374;2023-10-08T04:44:57;101587.81;;;10.26;100.00
67015;BME280;1033;52.560;13.374;2023-10-08T04:47:28;101586.44;;;10.16;100.00
67015;BME280;1033;52.560;13.374;2023-10-08T04:50:03;101588.50;;;10.06;100.00
67015;BME280;1033;52.560;13.374;2023-10-08T04:52:35;101585.97;;;10.04;100.00
67015;BME280;1033;52.560;13.374;2023-10-08T04:55:15;101581.97;;;10.00;100.00
67015;BME280;1033;52.560;13.374;2023-10-08T04:57:49;101596.19;;;9.94;100.00
67015;BME280;1033;52.560;13.374;2023-10-08T05:00:24;101602.44;;;9.94;100.00
67015;BME280;1033;52.560;13.374;2023-10-08T05:03:09;101608.94;;;9.85;100.00
67015;BME280;1033;52.560;13.374;2023-10-08T05:05:44;101626.19;;;9.84;100.00
67015;BME280;1033;52.560;13.374;2023-10-08T05:08:35;101631.25;;;9.87;100.00
67015;BME280;1033;52.560;13.374;2023-10-08T05:11:16;101633.94;;;9.87;100.00
67015;BME280;1033;52.560;13.374;2023-10-08T05:14:15;101629.41;;;9.80;100.00
67015;BME280;1033;52.560;13.374;2023-10-08T05:16:59;101638.78;;;9.69;100.00
67015;BME280;1033;52.560;13.374;2023-10-08T05:19:32;101635.06;;;9.70;100.00
67015;BME280;1033;52.560;13.374;2023-10-08T05:22:25;101641.78;;;9.74;100.00
67015;BME280;1033;52.560;13.374;2023-10-08T05:25:12;101662.09;;;9.70;100.00
67015;BME280;1033;52.560;13.374;2023-10-08T05:28:04;101668.19;;;9.64;100.00
67015;BME280;1033;52.560;13.374;2023-10-08T05:30:38;101670.94;;;9.56;100.00
67015;BME280;1033;52.560;13.374;2023-10-08T05:33:12;101664.53;;;9.57;100.00
67015;BME280;1033;52.560;13.374;2023-10-08T05:35:53;101672.97;;;9.54;100.00
67015;BME280;1033;52.560;13.374;2023-10-08T05:38:38;101678.88;;;9.57;100.00
67015;BME280;1033;52.560;13.374;2023-10-08T05:41:17;101676.13;;;9.66;100.00
67015;BME280;1033;52.560;13.374;2023-10-08T05:44:20;101690.88;;;9.55;100.00
67015;BME280;1033;52.560;13.374;2023-10-08T05:47:07;101692.81;;;9.69;100.00
67015;BME280;1033;52.560;13.374;2023-10-08T05:49:59;101700.09;;;9.69;100.00
67015;BME280;1033;52.560;13.374;2023-10-08T05:52:43;101697.91;;;9.72;100.00
67015;BME280;1033;52.560;13.374;2023-10-08T05:55:31;101691.75;;;9.78;100.00
67015;BME280;1033;52.560;13.374;2023-10-08T05:58:05;101700.25;;;9.75;100.00
67015;BME280;1033;52.560;13.374;2023-10-08T06:00:53;101717.38;;;9.90;100.00
67015;BME280;1033;52.560;13.374;2023-10-08T06:03:37;101712.22;;;9.81;100.00
67015;BME280;1033;52.560;13.374;2023-10-08T06:06:19;101723.03;;;9.81;100.00
67015;BME280;1033;52.560;13.374;2023-10-08T06:08:51;101737.50;;;9.88;100.00
67015;BME280;1033;52.560;13.374;2023-10-08T06:12:05;101748.50;;;9.86;100.00
67015;BME280;1033;52.560;13.374;2023-10-08T06:14:40;101762.50;;;9.90;100.00
67015;BME280;1033;52.560;13.374;2023-10-08T06:17:20;101777.34;;;9.94;100.00
67015;BME280;1033;52.560;13.374;2023-10-08T06:20:02;101787.63;;;10.07;100.00
67015;BME280;1033;52.560;13.374;2023-10-08T06:22:37;101797.28;;;10.32;100.00
67015;BME280;1033;52.560;13.374;2023-10-08T06:25:06;101797.19;;;10.48;100.00
67015;BME280;1033;52.560;13.374;2023-10-08T06:27:47;101798.97;;;10.56;100.00
67015;BME280;1033;52.560;13.374;2023-10-08T06:30:16;101792.25;;;10.52;100.00
67015;BME280;1033;52.560;13.374;2023-10-08T06:32:45;101791.41;;;10.51;100.00
67015;BME280;1033;52.560;13.374;2023-10-08T06:35:15;101804.69;;;10.38;100.00
67015;BME280;1033;52.560;13.374;2023-10-08T06:37:46;101805.38;;;10.40;100.00
67015;BME280;1033;52.560;13.374;2023-10-08T06:40:16;101811.50;;;10.34;100.00
67015;BME280;1033;52.560;13.374;2023-10-08T06:43:01;101818.44;;;10.28;100.00
67015;BME280;1033;52.560;13.374;2023-10-08T06:45:40;101806.69;;;10.44;100.00
67015;BME280;1033;52.560;13.374;2023-10-08T06:48:09;101819.84;;;10.47;100.00
67015;BME280;1033;52.560;13.374;2023-10-08T06:50:46;101832.31;;;10.56;100.00
67015;BME280;1033;52.560;13.374;2023-10-08T06:53:15;101846.66;;;10.65;100.00
67015;BME280;1033;52.560;13.374;2023-10-08T06:55:46;101842.97;;;10.80;100.00
67015;BME280;1033;52.560;13.374;2023-10-08T06:58:17;101841.09;;;10.81;100.00
67015;BME280;1033;52.560;13.374;2023-10-08T07:00:46;101846.41;;;10.74;100.00
67015;BME280;1033;52.560;13.374;2023-10-08T07:03:17;101848.22;;;10.82;100.00
67015;BME280;1033;52.560;13.374;2023-10-08T07:05:47;101848.75;;;10.77;100.00
67015;BME280;1033;52.560;13.374;2023-10-08T07:08:27;101851.38;;;10.85;100.00
67015;BME280;1033;52.560;13.374;2023-10-08T07:11:00;101856.25;;;10.90;100.00
67015;BME280;1033;52.560;13.374;2023-10-08T07:13:35;101862.09;;;11.02;100.00
67015;BME280;1033;52.560;13.374;2023-10-08T07:16:05;101876.59;;;11.09;100.00
67015;BME280;1033;52.560;13.374;2023-10-08T07:18:39;101877.69;;;11.00;100.00
67015;BME280;1033;52.560;13.374;2023-10-08T07:21:11;101880.19;;;11.24;100.00
67015;BME280;1033;52.560;13.374;2023-10-08T07:23:40;101882.91;;;11.24;100.00
67015;BME280;1033;52.560;13.374;2023-10-08T07:26:24;101895.50;;;11.17;100.00
67015;BME280;1033;52.560;13.374;2023-10-08T07:28:55;101891.53;;;11.27;100.00
67015;BME280;1033;52.560;13.374;2023-10-08T07:31:24;101899.13;;;11.32;100.00
67015;BME280;1033;52.560;13.374;2023-10-08T07:33:57;101902.59;;;11.41;100.00
67015;BME280;1033;52.560;13.374;2023-10-08T07:36:44;101911.81;;;11.31;100.00
67015;BME280;1033;52.560;13.374;2023-10-08T07:39:13;101911.91;;;11.38;100.00
67015;BME280;1033;52.560;13.374;2023-10-08T07:41:53;101918.72;;;11.34;100.00
67015;BME280;1033;52.560;13.374;2023-10-08T07:44:25;101918.19;;;11.39;100.00
67015;BME280;1033;52.560;13.374;2023-10-08T07:46:55;101917.88;;;11.56;100.00
67015;BME280;1033;52.560;13.374;2023-10-08T07:49:25;101923.19;;;11.64;100.00
67015;BME280;1033;52.560;13.374;2023-10-08T07:51:57;101918.56;;;11.73;100.00
67015;BME280;1033;52.560;13.374;2023-10-08T07:54:29;101925.69;;;11.74;97.05
67015;BME280;1033;52.560;13.374;2023-10-08T07:57:02;101922.78;;;11.75;96.57
67015;BME280;1033;52.560;13.374;2023-10-08T07:59:41;101926.63;;;11.81;97.83
67015;BME280;1033;52.560;13.374;2023-10-08T08:02:16;101937.47;;;11.96;100.00
67015;BME280;1033;52.560;13.374;2023-10-08T08:04:51;101937.88;;;12.07;100.00
67015;BME280;1033;52.560;13.374;2023-10-08T08:07:20;101933.84;;;12.18;96.23
67015;BME280;1033;52.560;13.374;2023-10-08T08:09:51;101936.84;;;12.23;97.29
67015;BME280;1033;52.560;13.374;2023-10-08T08:12:27;101938.03;;;12.20;97.72
67015;BME280;1033;52.560;13.374;2023-10-08T08:14:57;101938.31;;;12.26;93.43
67015;BME280;1033;52.560;13.374;2023-10-08T08:17:26;101945.25;;;12.28;89.35
67015;BME280;1033;52.560;13.374;2023-10-08T08:19:58;101943.75;;;12.40;85.56
67015;BME280;1033;52.560;13.374;2023-10-08T08:22:34;101952.91;;;12.39;86.57
67015;BME280;1033;52.560;13.374;2023-10-08T08:25:08;101955.53;;;12.47;84.25
67015;BME280;1033;52.560;13.374;2023-10-08T08:27:43;101955.16;;;12.50;85.77
67015;BME280;1033;52.560;13.374;2023-10-08T08:30:16;101963.50;;;12.49;80.03
67015;BME280;1033;52.560;13.374;2023-10-08T08:32:46;101968.25;;;12.61;79.44
67015;BME280;1033;52.560;13.374;2023-10-08T08:35:20;101967.97;;;12.71;80.04
67015;BME280;1033;52.560;13.374;2023-10-08T08:37:49;101963.66;;;12.77;81.36
67015;BME280;1033;52.560;13.374;2023-10-08T08:40:19;101969.34;;;12.82;80.29
67015;BME280;1033;52.560;13.374;2023-10-08T08:42:49;101977.84;;;12.93;78.23
67015;BME280;1033;52.560;13.374;2023-10-08T08:45:22;101987.22;;;12.91;78.02
67015;BME280;1033;52.560;13.374;2023-10-08T08:47:52;101985.41;;;12.98;77.10
67015;BME280;1033;52.560;13.374;2023-10-08T08:50:23;101992.63;;;13.05;77.05
67015;BME280;1033;52.560;13.374;2023-10-08T08:52:54;102000.50;;;13.15;72.45
67015;BME280;1033;52.560;13.374;2023-10-08T08:55:23;101996.16;;;13.21;70.43
67015;BME280;1033;52.560;13.374;2023-10-08T08:57:53;101996.44;;;13.26;70.55
67015;BME280;1033;52.560;13.374;2023-10-08T09:00:26;102002.50;;;13.28;73.61
67015;BME280;1033;52.560;13.374;2023-10-08T09:02:57;102005.66;;;13.31;73.72
67015;BME280;1033;52.560;13.374;2023-10-08T09:05:26;102003.47;;;13.41;73.67
67015;BME280;1033;52.560;13.374;2023-10-08T09:08:04;102010.59;;;13.42;72.04
67015;BME280;1033;52.560;13.374;2023-10-08T09:10:35;102002.44;;;13.42;71.74
67015;BME280;1033;52.560;13.374;2023-10-08T09:13:07;102017.84;;;13.57;71.91
67015;BME280;1033;52.560;13.374;2023-10-08T09:15:38;102010.59;;;13.64;70.39
67015;BME280;1033;52.560;13.374;2023-10-08T09:18:08;102011.53;;;13.49;68.32
67015;BME280;1033;52.560;13.374;2023-10-08T09:20:37;102020.78;;;13.55;70.88
67015;BME280;1033;52.560;13.374;2023-10-08T09:23:13;102017.00;;;13.56;69.66
67015;BME280;1033;52.560;13.374;2023-10-08T09:25:43;102020.47;;;13.65;70.15
67015;BME280;1033;52.560;13.374;2023-10-08T09:28:12;102022.38;;;13.71;69.42
67015;BME280;1033;52.560;13.374;2023-10-08T09:30:44;102025.22;;;13.84;68.17
67015;BME280;1033;52.560;13.374;2023-10-08T09:33:15;102024.84;;;13.66;65.28
67015;BME280;1033;52.560;13.374;2023-10-08T09:35:46;102018.66;;;13.51;66.80
67015;BME280;1033;52.560;13.374;2023-10-08T09:38:15;102024.84;;;13.44;68.56
67015;BME280;1033;52.560;13.374;2023-10-08T09:40:52;102018.88;;;13.77;67.68
67015;BME280;1033;52.560;13.374;2023-10-08T09:43:23;102021.78;;;13.97;65.32
67015;BME280;1033;52.560;13.374;2023-10-08T09:45:58;102025.34;;;13.97;64.40
67015;BME280;1033;52.560;13.374;2023-10-08T09:48:31;102025.25;;;13.90;60.79
67015;BME280;1033;52.560;13.374;2023-10-08T09:51:00;102029.59;;;14.06;57.52
67015;BME280;1033;52.560;13.374;2023-10-08T09:53:40;102036.31;;;14.10;53.83
67015;BME280;1033;52.560;13.374;2023-10-08T09:56:14;102046.75;;;14.07;52.11
67015;BME280;1033;52.560;13.374;2023-10-08T09:58:46;102053.56;;;14.17;51.00
67015;BME280;1033;52.560;13.374;2023-10-08T10:01:19;102055.63;;;14.15;52.96
67015;BME280;1033;52.560;13.374;2023-10-08T10:03:51;102050.34;;;14.07;51.11
67015;BME280;1033;52.560;13.374;2023-10-08T10:06:20;102049.28;;;14.08;49.68
67015;BME280;1033;52.560;13.374;2023-10-08T10:08:49;102047.09;;;14.25;50.61
67015;BME280;1033;52.560;13.374;2023-10-08T10:11:18;102046.66;;;14.21;52.23
67015;BME280;1033;52.560;13.374;2023-10-08T10:13:52;102049.47;;;14.34;51.69
67015;BME280;1033;52.560;13.374;2023-10-08T10:16:29;102055.94;;;14.55;51.58
67015;BME280;1033;52.560;13.374;2023-10-08T10:18:59;102051.94;;;14.51;51.04
67015;BME280;1033;52.560;13.374;2023-10-08T10:21:30;102053.09;;;14.69;53.19
67015;BME280;1033;52.560;13.374;2023-10-08T10:24:00;102059.25;;;14.50;49.85
67015;BME280;1033;52.560;13.374;2023-10-08T10:26:35;102054.69;;;14.29;49.23
67015;BME280;1033;52.560;13.374;2023-10-08T10:29:23;102050.19;;;14.43;50.30
67015;BME280;1033;52.560;13.374;2023-10-08T10:31:55;102052.97;;;14.50;51.85
67015;BME280;1033;52.560;13.374;2023-10-08T10:34:27;102058.91;;;14.60;49.12
67015;BME280;1033;52.560;13.374;2023-10-08T10:36:57;102060.06;;;14.78;53.37
67015;BME280;1033;52.560;13.374;2023-10-08T10:39:32;102071.09;;;15.05;52.36
67015;BME280;1033;52.560;13.374;2023-10-08T10:42:02;102069.63;;;15.15;46.70
67015;BME280;1033;52.560;13.374;2023-10-08T10:44:34;102061.19;;;14.91;48.65
67015;BME280;1033;52.560;13.374;2023-10-08T10:47:06;102068.88;;;14.81;43.51
67015;BME280;1033;52.560;13.374;2023-10-08T10:49:54;102071.38;;;14.82;44.67
67015;BME280;1033;52.560;13.374;2023-10-08T10:52:45;102075.47;;;14.99;43.86
67015;BME280;1033;52.560;13.374;2023-10-08T10:55:20;102074.16;;;14.89;47.02
67015;BME280;1033;52.560;13.374;2023-10-08T10:57:53;102075.19;;;15.42;49.74
67015;BME280;1033;52.560;13.374;2023-10-08T11:00:25;102074.91;;;15.78;48.04
67015;BME280;1033;52.560;13.374;2023-10-08T11:03:12;102070.69;;;16.08;50.98
67015;BME280;1033;52.560;13.374;2023-10-08T11:05:54;102075.00;;;15.50;42.72
67015;BME280;1033;52.560;13.374;2023-10-08T11:08:27;102065.88;;;15.10;44.59
67015;BME280;1033;52.560;13.374;2023-10-08T11:11:03;102069.59;;;15.02;44.07
67015;BME280;1033;52.560;13.374;2023-10-08T11:13:35;102066.13;;;15.35;50.21
67015;BME280;1033;52.560;13.374;2023-10-08T11:16:08;102069.03;;;15.13;44.45
67015;BME280;1033;52.560;13.374;2023-10-08T11:18:46;102066.97;;;15.29;45.38
67015;BME280;1033;52.560;13.374;2023-10-08T11:21:18;102056.81;;;15.70;52.66
67015;BME280;1033;52.560;13.374;2023-10-08T11:23:53;102057.84;;;15.56;43.39
67015;BME280;1033;52.560;13.374;2023-10-08T11:26:24;102060.38;;;15.64;43.76
67015;BME280;1033;52.560;13.374;2023-10-08T11:29:01;102065.56;;;15.39;43.71
67015;BME280;1033;52.560;13.374;2023-10-08T11:31:31;102061.75;;;15.40;43.48
67015;BME280;1033;52.560;13.374;2023-10-08T11:34:04;102064.41;;;15.94;45.46
67015;BME280;1033;52.560;13.374;2023-10-08T11:36:37;102057.50;;;16.12;45.05
67015;BME280;1033;52.560;13.374;2023-10-08T11:39:21;102067.75;;;16.03;44.48
67015;BME280;1033;52.560;13.374;2023-10-08T11:41:57;102065.44;;;16.13;42.73
67015;BME280;1033;52.560;13.374;2023-10-08T11:44:31;102061.03;;;16.19;47.82
67015;BME280;1033;52.560;13.374;2023-10-08T11:47:04;102059.56;;;15.83;42.50
67015;BME280;1033;52.560;13.374;2023-10-08T11:49:41;102053.47;;;15.81;43.92
67015;BME280;1033;52.560;13.374;2023-10-08T11:52:15;102056.81;;;15.57;43.25
67015;BME280;1033;52.560;13.374;2023-10-08T11:54:49;102064.19;;;15.76;42.94
67015;BME280;1033;52.560;13.374;2023-10-08T11:57:20;102056.41;;;15.93;41.91
67015;BME280;1033;52.560;13.374;2023-10-08T11:59:50;102066.50;;;16.05;41.91
67015;BME280;1033;52.560;13.374;2023-10-08T12:02:23;102069.00;;;15.74;41.31
67015;BME280;1033;52.560;13.374;2023-10-08T12:04:53;102060.19;;;15.85;41.68
67015;BME280;1033;52.560;13.374;2023-10-08T12:07:25;102067.34;;;16.13;40.40
67015;BME280;1033;52.560;13.374;2023-10-08T12:09:55;102070.72;;;16.41;40.62
67015;BME280;1033;52.560;13.374;2023-10-08T12:12:24;102067.72;;;16.62;41.10
67015;BME280;1033;52.560;13.374;2023-10-08T12:14:55;102079.06;;;16.46;41.70
67015;BME280;1033;52.560;13.374;2023-10-08T12:17:24;102061.81;;;16.78;44.23
67015;BME280;1033;52.560;13.374;2023-10-08T12:20:08;102068.97;;;16.66;41.65
67015;BME280;1033;52.560;13.374;2023-10-08T12:22:51;102054.28;;;16.47;42.01
67015;BME280;1033;52.560;13.374;2023-10-08T12:25:20;102046.72;;;16.43;42.82
67015;BME280;1033;52.560;13.374;2023-10-08T12:27:50;102046.44;;;16.84;42.38
67015;BME280;1033;52.560;13.374;2023-10-08T12:30:18;102045.75;;;17.02;45.99
67015;BME280;1033;52.560;13.374;2023-10-08T12:32:58;102042.75;;;17.10;44.67
67015;BME280;1033;52.560;13.374;2023-10-08T12:35:29;102044.44;;;17.11;43.69
67015;BME280;1033;52.560;13.374;2023-10-08T12:37:58;102050.28;;;16.70;40.08
67015;BME280;1033;52.560;13.374;2023-10-08T12:40:26;102042.13;;;16.17;41.37
67015;BME280;1033;52.560;13.374;2023-10-08T12:43:09;102042.56;;;15.94;41.90
67015;BME280;1033;52.560;13.374;2023-10-08T12:45:38;102035.19;;;15.75;42.26
67015;BME280;1033;52.560;13.374;2023-10-08T12:48:07;102039.19;;;15.66;42.24
67015;BME280;1033;52.560;13.374;2023-10-08T12:50:37;102040.22;;;15.65;42.77
67015;BME280;1033;52.560;13.374;2023-10-08T12:53:11;102053.25;;;15.76;42.38
67015;BME280;1033;52.560;13.374;2023-10-08T12:55:40;102029.13;;;15.99;42.20
67015;BME280;1033;52.560;13.374;2023-10-08T12:58:08;102018.19;;;16.13;42.83
67015;BME280;1033;52.560;13.374;2023-10-08T13:00:38;102032.03;;;16.31;43.26
67015;BME280;1033;52.560;13.374;2023-10-08T13:03:09;102042.56;;;15.68;42.98
67015;BME280;1033;52.560;13.374;2023-10-08T13:05:44;102029.97;;;15.67;43.16
67015;BME280;1033;52.560;13.374;2023-10-08T13:08:14;102022.81;;;15.79;43.82
67015;BME280;1033;52.560;13.374;2023-10-08T13:10:42;102014.75;;;15.45;44.09
67015;BME280;1033;52.560;13.374;2023-10-08T13:13:12;102031.97;;;15.39;43.89
67015;BME280;1033;52.560;13.374;2023-10-08T13:15:41;102025.69;;;15.45;46.33
67015;BME280;1033;52.560;13.374;2023-10-08T13:18:10;102030.81;;;15.87;44.90
67015;BME280;1033;52.560;13.374;2023-10-08T13:20:39;102031.81;;;16.32;42.61
67015;BME280;1033;52.560;13.374;2023-10-08T13:23:13;102040.41;;;16.49;42.22